createdAt,value
2023-04-07T00:01:30.564Z,7.48
2023-04-07T00:03:59.083Z,7.38
2023-04-07T00:06:28.854Z,7.34
2023-04-07T00:08:56.807Z,7.33
2023-04-07T00:11:24.802Z,7.31
2023-04-07T00:13:53.022Z,7.38
2023-04-07T00:16:21.192Z,7.43
2023-04-07T00:18:50.559Z,7.42
2023-04-07T00:21:18.518Z,7.47
2023-04-07T00:23:47.017Z,7.50
2023-04-07T00:26:14.929Z,7.47
2023-04-07T00:28:43.072Z,7.29
2023-04-07T00:31:11.048Z,7.38
2023-04-07T00:33:39.058Z,7.40
2023-04-07T00:36:08.816Z,7.39
2023-04-07T00:38:36.835Z,7.36
2023-04-07T00:41:04.751Z,7.39
2023-04-07T00:43:32.682Z,7.36
2023-04-07T00:46:00.769Z,7.27
2023-04-07T00:48:28.756Z,7.31
2023-04-07T00:50:56.684Z,7.29
2023-04-07T00:53:25.976Z,7.28
2023-04-07T00:55:54.141Z,7.22
2023-04-07T00:58:22.100Z,7.20
2023-04-07T01:00:51.456Z,7.22
2023-04-07T01:03:20.969Z,7.23
2023-04-07T01:05:54.308Z,7.16
2023-04-07T01:08:24.626Z,7.15
2023-04-07T01:10:56.832Z,7.06
2023-04-07T01:13:27.680Z,7.06
2023-04-07T01:15:57.478Z,7.06
2023-04-07T01:18:27.907Z,7.12
2023-04-07T01:20:57.631Z,7.11
2023-04-07T01:23:32.945Z,7.05
2023-04-07T01:26:18.751Z,7.06
2023-04-07T01:29:12.871Z,7.06
2023-04-07T01:31:42.583Z,7.03
2023-04-07T01:34:12.108Z,7.01
2023-04-07T01:36:40.101Z,6.97
2023-04-07T01:39:08.059Z,7.00
2023-04-07T01:41:36.014Z,6.99
2023-04-07T01:44:04.079Z,6.95
2023-04-07T01:46:32.046Z,6.93
2023-04-07T01:49:01.441Z,6.89
2023-04-07T01:51:29.452Z,6.86
2023-04-07T01:53:57.470Z,6.64
2023-04-07T01:56:25.712Z,6.68
2023-04-07T01:58:53.646Z,6.70
2023-04-07T02:01:21.692Z,6.71
2023-04-07T02:03:53.086Z,6.67
2023-04-07T02:06:24.630Z,6.61
2023-04-07T02:08:56.374Z,6.62
2023-04-07T02:11:24.287Z,6.60
2023-04-07T02:13:52.674Z,6.59
2023-04-07T02:16:20.862Z,6.57
2023-04-07T02:18:48.819Z,6.59
2023-04-07T02:21:16.982Z,6.51
2023-04-07T02:23:46.302Z,6.49
2023-04-07T02:26:14.337Z,6.44
2023-04-07T02:28:42.341Z,6.33
2023-04-07T02:31:11.213Z,6.31
2023-04-07T02:33:39.108Z,6.24
2023-04-07T02:36:07.344Z,6.19
2023-04-07T02:38:35.315Z,6.12
2023-04-07T02:41:04.641Z,6.05
2023-04-07T02:43:32.568Z,6.01
2023-04-07T02:46:00.608Z,5.95
2023-04-07T02:48:28.593Z,5.92
2023-04-07T02:50:56.559Z,5.86
2023-04-07T02:53:24.594Z,5.83
2023-04-07T02:55:52.565Z,5.77
2023-04-07T02:58:21.901Z,5.74
2023-04-07T03:00:50.887Z,5.72
2023-04-07T03:03:19.017Z,5.74
2023-04-07T03:05:47.028Z,5.70
2023-04-07T03:08:14.987Z,5.71
2023-04-07T03:10:44.004Z,5.76
2023-04-07T03:13:12.974Z,5.82
2023-04-07T03:15:42.265Z,5.79
2023-04-07T03:18:11.352Z,5.76
2023-04-07T03:20:42.004Z,5.70
2023-04-07T03:23:09.974Z,5.66
2023-04-07T03:25:37.887Z,5.68
2023-04-07T03:28:06.153Z,5.74
2023-04-07T03:30:34.212Z,5.83
2023-04-07T03:33:03.593Z,5.88
2023-04-07T03:35:31.786Z,5.96
2023-04-07T03:37:59.735Z,5.91
2023-04-07T03:40:27.767Z,5.85
2023-04-07T03:42:55.730Z,5.73
2023-04-07T03:45:23.711Z,5.58
2023-04-07T03:47:51.775Z,5.48
2023-04-07T03:50:21.294Z,5.33
2023-04-07T03:52:49.197Z,5.26
2023-04-07T03:55:17.357Z,5.23
2023-04-07T03:57:45.502Z,5.27
2023-04-07T04:00:14.580Z,5.27
2023-04-07T04:02:42.548Z,5.35
2023-04-07T04:05:10.742Z,5.31
2023-04-07T04:07:40.027Z,5.49
2023-04-07T04:10:09.349Z,5.61
2023-04-07T04:12:37.272Z,5.71
2023-04-07T04:15:05.939Z,5.74
2023-04-07T04:17:33.975Z,5.77
2023-04-07T04:20:01.987Z,5.84
2023-04-07T04:22:29.942Z,5.84
2023-04-07T04:24:59.258Z,5.86
2023-04-07T04:27:27.226Z,5.95
2023-04-07T04:29:55.170Z,5.96
2023-04-07T04:32:23.235Z,5.99
2023-04-07T04:34:51.227Z,6.10
2023-04-07T04:37:19.382Z,6.31
2023-04-07T04:39:47.424Z,6.54
2023-04-07T04:42:17.567Z,6.78
2023-04-07T04:44:45.549Z,7.09
2023-04-07T04:47:13.515Z,7.44
2023-04-07T04:49:41.517Z,7.72
2023-04-07T04:52:09.535Z,8.05
2023-04-07T04:54:37.628Z,8.39
2023-04-07T04:57:05.626Z,8.75
2023-04-07T04:59:35.092Z,8.99
2023-04-07T05:02:03.282Z,9.23
2023-04-07T05:04:31.910Z,9.46
2023-04-07T05:07:00.065Z,9.78
2023-04-07T05:09:28.527Z,9.91
2023-04-07T05:11:57.911Z,10.30
2023-04-07T05:14:25.852Z,10.39
2023-04-07T05:16:55.386Z,10.58
2023-04-07T05:19:23.363Z,10.87
2023-04-07T05:21:51.494Z,11.05
2023-04-07T05:24:19.415Z,11.14
2023-04-07T05:26:47.356Z,11.10
2023-04-07T05:29:15.322Z,11.32
2023-04-07T05:31:43.295Z,11.27
2023-04-07T05:34:12.641Z,10.90
2023-04-07T05:36:40.620Z,11.14
2023-04-07T05:39:08.555Z,11.27
2023-04-07T05:41:36.531Z,11.26
2023-04-07T05:44:04.498Z,11.46
2023-04-07T05:46:32.411Z,11.56
2023-04-07T05:49:07.170Z,11.56
2023-04-07T05:51:42.598Z,11.62
2023-04-07T05:54:10.765Z,11.62
2023-04-07T05:56:38.701Z,11.28
2023-04-07T05:59:06.629Z,11.27
2023-04-07T06:01:34.643Z,11.23
2023-04-07T06:04:03.560Z,11.28
2023-04-07T06:06:31.737Z,11.48
2023-04-07T06:09:01.034Z,11.78
2023-04-07T06:11:29.078Z,11.98
2023-04-07T06:13:57.030Z,11.89
2023-04-07T06:16:25.006Z,11.81
2023-04-07T06:18:52.978Z,12.28
2023-04-07T06:21:20.938Z,13.31
2023-04-07T06:23:49.256Z,13.87
2023-04-07T06:26:18.734Z,13.96
2023-04-07T06:28:46.801Z,14.63
2023-04-07T06:31:14.841Z,15.11
2023-04-07T06:33:42.863Z,15.30
2023-04-07T06:36:10.924Z,15.07
2023-04-07T06:38:38.856Z,15.01
2023-04-07T06:41:08.591Z,14.52
2023-04-07T06:43:37.959Z,14.30
2023-04-07T06:46:06.388Z,14.65
2023-04-07T06:48:34.370Z,15.01
2023-04-07T06:51:02.288Z,16.05
2023-04-07T06:53:30.317Z,16.51
2023-04-07T06:56:05.791Z,15.88
2023-04-07T06:58:33.777Z,15.48
2023-04-07T07:01:03.128Z,15.22
2023-04-07T07:03:31.818Z,15.21
2023-04-07T07:05:59.903Z,16.32
2023-04-07T07:08:27.988Z,16.70
2023-04-07T07:10:55.940Z,16.63
2023-04-07T07:13:24.547Z,17.43
2023-04-07T07:15:52.885Z,17.80
2023-04-07T07:18:22.354Z,18.22
2023-04-07T07:20:50.812Z,19.38
2023-04-07T07:23:18.821Z,19.99
2023-04-07T07:25:46.766Z,19.83
2023-04-07T07:28:14.750Z,19.78
2023-04-07T07:30:42.663Z,19.63
2023-04-07T07:33:10.611Z,18.43
2023-04-07T07:35:40.687Z,19.04
2023-04-07T07:38:08.780Z,19.55
2023-04-07T07:40:36.765Z,18.97
2023-04-07T07:43:04.691Z,18.28
2023-04-07T07:45:32.671Z,17.51
2023-04-07T07:48:00.888Z,17.28
2023-04-07T07:50:29.076Z,16.55
2023-04-07T07:52:58.503Z,16.26
2023-04-07T07:55:26.464Z,16.21
2023-04-07T07:57:54.399Z,15.99
2023-04-07T08:00:24.065Z,15.84
2023-04-07T08:02:52.090Z,15.98
2023-04-07T08:05:20.086Z,16.07
2023-04-07T08:07:48.969Z,16.41
2023-04-07T08:10:20.212Z,16.52
2023-04-07T08:12:48.121Z,16.03
2023-04-07T08:15:16.178Z,15.80
2023-04-07T08:17:44.168Z,15.79
2023-04-07T08:20:12.604Z,15.95
2023-04-07T08:22:40.560Z,15.84
2023-04-07T08:25:08.907Z,15.80
2023-04-07T08:27:38.194Z,15.70
2023-04-07T08:30:07.538Z,14.94
2023-04-07T08:32:36.847Z,15.17
2023-04-07T08:35:05.138Z,15.61
2023-04-07T08:37:33.242Z,15.61
2023-04-07T08:40:01.798Z,15.77
2023-04-07T08:42:30.834Z,16.11
2023-04-07T08:45:03.591Z,15.97
2023-04-07T08:47:33.123Z,15.92
2023-04-07T08:50:02.339Z,16.14
2023-04-07T08:52:34.055Z,16.14
2023-04-07T08:55:03.508Z,16.06
2023-04-07T08:57:32.195Z,15.55
2023-04-07T09:00:05.664Z,15.38
2023-04-07T09:02:35.153Z,15.30
2023-04-07T09:05:04.698Z,15.16
2023-04-07T09:07:32.874Z,15.16
2023-04-07T09:10:01.665Z,15.35
2023-04-07T09:12:29.690Z,15.63
2023-04-07T09:14:57.611Z,16.23
2023-04-07T09:17:28.053Z,16.42
2023-04-07T09:19:57.649Z,16.40
2023-04-07T09:22:36.476Z,16.52
2023-04-07T09:25:12.027Z,16.75
2023-04-07T09:27:40.009Z,16.81
2023-04-07T09:30:14.950Z,17.28
2023-04-07T09:32:44.667Z,16.93
2023-04-07T09:35:12.694Z,16.59
2023-04-07T09:37:40.753Z,16.34
2023-04-07T09:40:10.069Z,16.47
2023-04-07T09:42:46.208Z,16.10
2023-04-07T09:45:21.114Z,15.95
2023-04-07T09:48:00.604Z,16.25
2023-04-07T09:50:35.365Z,16.20
2023-04-07T09:53:04.659Z,16.10
2023-04-07T09:55:33.900Z,16.07
2023-04-07T09:58:01.903Z,16.05
2023-04-07T10:00:29.877Z,15.81
2023-04-07T10:02:58.019Z,15.80
2023-04-07T10:05:28.003Z,15.74
2023-04-07T10:07:55.954Z,16.05
2023-04-07T10:10:23.933Z,16.24
2023-04-07T10:12:51.930Z,16.17
2023-04-07T10:15:19.947Z,16.68
2023-04-07T10:17:49.348Z,17.41
2023-04-07T10:20:18.511Z,18.04
2023-04-07T10:22:48.485Z,17.91
2023-04-07T10:25:18.545Z,17.98
2023-04-07T10:27:53.313Z,17.65
2023-04-07T10:30:24.344Z,17.11
2023-04-07T10:32:54.245Z,17.25
2023-04-07T10:35:22.841Z,17.16
2023-04-07T10:38:15.077Z,17.10
2023-04-07T10:40:43.650Z,17.10
2023-04-07T10:43:12.095Z,16.95
2023-04-07T10:45:59.669Z,16.84
2023-04-07T10:48:33.457Z,16.61
2023-04-07T10:51:17.824Z,16.64
2023-04-07T10:54:20.502Z,16.78
2023-04-07T10:57:14.616Z,18.55
2023-04-07T10:59:47.133Z,19.30
2023-04-07T11:02:36.879Z,19.19
2023-04-07T11:05:05.264Z,18.14
2023-04-07T11:07:47.113Z,18.40
2023-04-07T11:10:16.563Z,18.23
2023-04-07T11:12:46.162Z,18.24
2023-04-07T11:15:21.964Z,17.87
2023-04-07T11:18:11.627Z,17.39
2023-04-07T11:20:49.646Z,17.54
2023-04-07T11:23:18.381Z,17.42
2023-04-07T11:25:47.258Z,17.43
2023-04-07T11:28:16.762Z,17.38
2023-04-07T11:30:49.729Z,16.93
2023-04-07T11:33:21.180Z,16.65
2023-04-07T11:35:58.844Z,16.68
2023-04-07T11:38:28.329Z,16.62
2023-04-07T11:40:56.720Z,16.65
2023-04-07T11:43:27.181Z,16.74
2023-04-07T11:46:08.475Z,16.65
2023-04-07T11:48:36.808Z,17.24
2023-04-07T11:51:05.010Z,17.52
2023-04-07T11:53:33.738Z,18.15
2023-04-07T11:56:05.294Z,18.97
2023-04-07T11:58:34.639Z,19.22
2023-04-07T12:01:08.963Z,19.86
2023-04-07T12:03:37.986Z,19.76
2023-04-07T12:06:06.460Z,19.08
2023-04-07T12:08:41.856Z,18.40
2023-04-07T12:11:10.290Z,17.93
2023-04-07T12:13:39.691Z,17.28
2023-04-07T12:16:07.836Z,16.86
2023-04-07T12:18:36.570Z,17.35
2023-04-07T12:21:05.034Z,17.40
2023-04-07T12:23:33.004Z,17.38
2023-04-07T12:26:01.296Z,17.14
2023-04-07T12:28:29.275Z,17.47
2023-04-07T12:30:58.929Z,17.37
2023-04-07T12:33:26.964Z,17.02
2023-04-07T12:35:54.956Z,17.32
2023-04-07T12:38:22.940Z,18.49
2023-04-07T12:40:51.749Z,18.64
2023-04-07T12:43:19.717Z,18.55
2023-04-07T12:45:47.827Z,17.21
2023-04-07T12:48:18.740Z,17.11
2023-04-07T12:50:46.710Z,16.37
2023-04-07T12:53:14.663Z,16.09
2023-04-07T12:55:42.665Z,15.73
2023-04-07T12:58:10.847Z,15.56
2023-04-07T13:00:38.896Z,15.77
2023-04-07T13:03:07.452Z,15.87
2023-04-07T13:05:36.991Z,16.03
2023-04-07T13:08:05.412Z,16.38
2023-04-07T13:10:33.425Z,15.90
2023-04-07T13:13:01.672Z,16.10
2023-04-07T13:15:29.679Z,16.10
2023-04-07T13:17:57.715Z,16.05
2023-04-07T13:20:28.179Z,15.91
2023-04-07T13:23:07.630Z,15.42
2023-04-07T13:25:37.613Z,15.09
2023-04-07T13:28:05.974Z,15.17
2023-04-07T13:30:34.129Z,14.80
2023-04-07T13:33:02.211Z,14.65
2023-04-07T13:35:33.778Z,14.30
2023-04-07T13:38:03.902Z,14.33
2023-04-07T13:40:31.908Z,14.23
2023-04-07T13:43:00.989Z,14.08
2023-04-07T13:45:29.057Z,13.99
2023-04-07T13:47:57.058Z,13.78
2023-04-07T13:50:25.888Z,13.72
2023-04-07T13:52:53.914Z,13.46
2023-04-07T13:55:23.259Z,13.35
2023-04-07T13:57:51.231Z,13.17
2023-04-07T14:00:19.638Z,13.00
2023-04-07T14:02:48.592Z,13.09
2023-04-07T14:05:16.811Z,12.91
2023-04-07T14:07:44.778Z,12.58
2023-04-07T14:10:12.928Z,12.50
2023-04-07T14:12:42.215Z,12.44
2023-04-07T14:15:11.103Z,12.33
2023-04-07T14:17:39.115Z,12.40
2023-04-07T14:20:09.106Z,12.54
2023-04-07T14:22:37.127Z,12.70
2023-04-07T14:25:05.904Z,12.75
2023-04-07T14:27:33.880Z,12.72
2023-04-07T14:30:03.266Z,12.74
2023-04-07T14:32:32.959Z,13.03
2023-04-07T14:35:01.405Z,12.97
2023-04-07T14:37:29.628Z,13.22
2023-04-07T14:42:29.738Z,13.22
2023-04-07T14:44:57.995Z,12.92
2023-04-07T14:47:27.606Z,12.82
2023-04-07T14:49:55.826Z,13.01
2023-04-07T14:52:23.796Z,13.07
2023-04-07T14:54:51.751Z,13.00
2023-04-07T14:57:19.734Z,13.03
2023-04-07T14:59:48.415Z,13.06
2023-04-07T15:02:17.102Z,12.93
2023-04-07T15:04:46.960Z,12.77
2023-04-07T15:07:15.510Z,12.78
2023-04-07T15:09:43.488Z,12.64
2023-04-07T15:12:11.430Z,12.84
2023-04-07T15:14:39.646Z,12.91
2023-04-07T15:17:07.589Z,12.88
2023-04-07T15:19:35.558Z,12.98
2023-04-07T15:22:04.858Z,12.94
2023-04-07T15:24:32.786Z,12.89
2023-04-07T15:27:00.728Z,12.65
2023-04-07T15:29:28.622Z,12.57
2023-04-07T15:31:56.738Z,12.39
2023-04-07T15:34:24.728Z,12.11
2023-04-07T15:36:52.703Z,12.06
2023-04-07T15:39:22.014Z,11.87
2023-04-07T15:41:49.965Z,11.80
2023-04-07T15:44:18.792Z,11.81
2023-04-07T15:46:46.996Z,11.67
2023-04-07T15:49:19.980Z,11.68
2023-04-07T15:51:47.962Z,11.68
2023-04-07T15:54:16.185Z,11.61
2023-04-07T15:56:45.542Z,11.56
2023-04-07T15:59:13.701Z,11.45
2023-04-07T16:01:41.737Z,11.30
2023-04-07T16:04:09.872Z,11.17
2023-04-07T16:06:37.917Z,11.15
2023-04-07T16:09:05.880Z,11.13
2023-04-07T16:11:33.790Z,10.96
2023-04-07T16:14:03.327Z,10.90
2023-04-07T16:16:32.486Z,10.82
2023-04-07T16:19:00.754Z,10.67
2023-04-07T16:21:28.692Z,10.71
2023-04-07T16:23:56.746Z,10.68
2023-04-07T16:26:24.749Z,10.66
2023-04-07T16:28:52.746Z,10.49
2023-04-07T16:31:22.124Z,10.46
2023-04-07T16:33:51.594Z,10.46
2023-04-07T16:36:19.621Z,10.47
2023-04-07T16:38:48.791Z,10.46
2023-04-07T16:41:16.728Z,10.36
2023-04-07T16:43:44.642Z,10.27
2023-04-07T16:46:12.641Z,10.19
2023-04-07T16:48:42.023Z,10.08
2023-04-07T16:51:09.975Z,10.00
2023-04-07T16:53:37.886Z,10.02
2023-04-07T16:56:05.967Z,9.98
2023-04-07T16:58:33.972Z,9.93
2023-04-07T17:01:02.001Z,9.93
2023-04-07T17:03:30.304Z,9.90
2023-04-07T17:06:05.056Z,9.82
2023-04-07T17:08:33.034Z,9.80
2023-04-07T17:11:00.964Z,9.68
2023-04-07T17:13:28.930Z,9.58
2023-04-07T17:15:56.922Z,9.55
2023-04-07T17:18:24.921Z,9.62
2023-04-07T17:20:53.004Z,9.53
2023-04-07T17:23:22.364Z,9.55
2023-04-07T17:25:50.436Z,9.50
2023-04-07T17:28:18.415Z,9.47
2023-04-07T17:30:46.470Z,9.36
2023-04-07T17:33:14.444Z,9.32
2023-04-07T17:35:42.490Z,9.31
2023-04-07T17:38:10.594Z,9.34
2023-04-07T17:40:39.907Z,9.37
2023-04-07T17:43:07.875Z,9.31
2023-04-07T17:45:35.827Z,9.33
2023-04-07T17:48:04.076Z,9.25
2023-04-07T17:50:32.215Z,9.24
2023-04-07T17:53:00.543Z,9.27
2023-04-07T17:55:29.057Z,9.24
2023-04-07T17:58:00.999Z,9.22
2023-04-07T18:00:29.388Z,9.16
2023-04-07T18:02:57.681Z,9.14
2023-04-07T18:05:26.119Z,9.07
2023-04-07T18:07:54.843Z,9.13
2023-04-07T18:10:22.993Z,9.15
2023-04-07T18:12:51.524Z,9.18
2023-04-07T18:15:21.174Z,9.19
2023-04-07T18:17:53.051Z,9.17
2023-04-07T18:20:21.626Z,9.16
2023-04-07T18:22:51.186Z,9.07
2023-04-07T18:25:19.372Z,9.06
2023-04-07T18:27:47.346Z,9.12
2023-04-07T18:30:16.307Z,9.11
2023-04-07T18:32:46.455Z,9.08
2023-04-07T18:35:14.406Z,9.08
2023-04-07T18:37:44.094Z,9.07
2023-04-07T18:40:13.040Z,9.11
2023-04-07T18:42:41.186Z,9.14
2023-04-07T18:45:09.884Z,9.18
2023-04-07T18:47:38.883Z,9.17
2023-04-07T18:50:09.562Z,9.17
2023-04-07T18:52:37.605Z,9.16
2023-04-07T18:55:06.622Z,9.15
2023-04-07T18:57:34.861Z,9.15
2023-04-07T19:00:02.802Z,9.16
2023-04-07T19:02:31.002Z,9.17
2023-04-07T19:04:59.041Z,9.15
2023-04-07T19:07:28.424Z,9.14
2023-04-07T19:09:56.510Z,9.07
2023-04-07T19:12:24.520Z,9.02
2023-04-07T19:14:52.486Z,9.03
2023-04-07T19:17:20.535Z,9.03
2023-04-07T19:19:48.676Z,9.05
2023-04-07T19:22:16.662Z,9.05
2023-04-07T19:24:46.032Z,9.03
2023-04-07T19:27:14.738Z,8.99
2023-04-07T19:29:42.898Z,9.03
2023-04-07T19:32:10.900Z,8.99
2023-04-07T19:34:38.832Z,8.96
2023-04-07T19:37:06.861Z,8.97
2023-04-07T19:39:35.324Z,8.92
2023-04-07T19:42:04.707Z,8.95
2023-04-07T19:44:32.655Z,8.89
2023-04-07T19:47:00.669Z,8.84
2023-04-07T19:49:28.626Z,8.82
2023-04-07T19:51:56.601Z,8.79
2023-04-07T19:54:24.582Z,8.80
2023-04-07T19:56:52.573Z,8.80
2023-04-07T19:59:21.916Z,8.78
2023-04-07T20:01:50.119Z,8.74
2023-04-07T20:04:18.198Z,8.71
2023-04-07T20:06:46.428Z,8.65
2023-04-07T20:09:14.421Z,8.65
2023-04-07T20:11:42.322Z,8.57
2023-04-07T20:14:10.390Z,8.62
2023-04-07T20:16:39.724Z,8.63
2023-04-07T20:19:07.657Z,8.65
2023-04-07T20:21:36.409Z,8.62
2023-04-07T20:24:04.664Z,8.61
2023-04-07T20:26:32.653Z,8.60
2023-04-07T20:29:00.589Z,8.58
2023-04-07T20:31:28.517Z,8.59
2023-04-07T20:33:57.880Z,8.57
2023-04-07T20:36:25.912Z,8.52
2023-04-07T20:38:55.360Z,8.55
2023-04-07T20:41:23.689Z,8.55
2023-04-07T20:43:52.303Z,8.48
2023-04-07T20:46:20.560Z,8.55
2023-04-07T20:48:48.675Z,8.59
2023-04-07T20:51:18.052Z,8.50
2023-04-07T20:53:46.007Z,8.57
2023-04-07T20:56:14.233Z,8.57
2023-04-07T20:58:42.247Z,8.51
2023-04-07T21:01:10.456Z,8.49
2023-04-07T21:03:38.878Z,8.49
2023-04-07T21:06:07.174Z,8.45
2023-04-07T21:08:36.539Z,8.41
2023-04-07T21:11:04.526Z,8.37
2023-04-07T21:13:32.531Z,8.37
2023-04-07T21:16:01.403Z,8.37
2023-04-07T21:18:29.469Z,8.38
2023-04-07T21:20:57.643Z,8.37
2023-04-07T21:23:25.655Z,8.39
2023-04-07T21:25:55.060Z,8.38
2023-04-07T21:28:23.056Z,8.34
2023-04-07T21:30:55.692Z,8.29
2023-04-07T21:33:23.805Z,8.28
2023-04-07T21:35:52.067Z,8.29
2023-04-07T21:38:20.137Z,8.29
2023-04-07T21:40:48.115Z,8.27
2023-04-07T21:43:17.482Z,8.28
2023-04-07T21:45:46.233Z,8.25
2023-04-07T21:48:16.194Z,8.16
2023-04-07T21:50:44.152Z,8.14
2023-04-07T21:53:12.080Z,8.14
2023-04-07T21:55:40.114Z,8.16
2023-04-07T21:58:08.086Z,8.15
2023-04-07T22:00:38.418Z,8.14
2023-04-07T22:03:07.166Z,8.15
2023-04-07T22:05:35.500Z,8.14
2023-04-07T22:08:03.498Z,8.14
2023-04-07T22:10:31.953Z,8.17
2023-04-07T22:12:59.908Z,8.19
2023-04-07T22:15:27.928Z,8.14
2023-04-07T22:17:57.884Z,8.15
2023-04-07T22:20:27.224Z,8.15
2023-04-07T22:22:57.554Z,8.16
2023-04-07T22:25:25.963Z,8.12
2023-04-07T22:27:53.933Z,8.11
2023-04-07T22:30:24.365Z,8.09
2023-04-07T22:32:52.402Z,8.09
2023-04-07T22:35:21.869Z,8.07
2023-04-07T22:37:49.880Z,8.04
2023-04-07T22:40:17.829Z,8.01
2023-04-07T22:42:45.808Z,7.95
2023-04-07T22:45:13.750Z,7.91
2023-04-07T22:47:41.770Z,7.90
2023-04-07T22:50:10.678Z,7.85
2023-04-07T22:52:40.009Z,7.82
2023-04-07T22:55:09.292Z,7.80
2023-04-07T22:57:37.369Z,7.83
2023-04-07T23:00:06.051Z,7.85
2023-04-07T23:02:34.069Z,7.87
2023-04-07T23:05:02.149Z,7.90
2023-04-07T23:07:30.086Z,7.90
2023-04-07T23:09:59.591Z,7.90
2023-04-07T23:12:27.622Z,7.87
2023-04-07T23:14:55.618Z,7.87
2023-04-07T23:17:23.583Z,7.88
2023-04-07T23:19:51.578Z,7.88
2023-04-07T23:22:19.622Z,7.90
2023-04-07T23:24:47.587Z,7.94
2023-04-07T23:27:16.895Z,7.96
2023-04-07T23:29:44.872Z,7.98
2023-04-07T23:32:12.932Z,7.97
2023-04-07T23:34:41.440Z,7.95
2023-04-07T23:37:09.399Z,7.93
2023-04-07T23:39:37.347Z,7.91
2023-04-07T23:42:05.366Z,7.92
2023-04-07T23:44:34.692Z,7.95
2023-04-07T23:47:02.612Z,7.94
2023-04-07T23:49:31.404Z,7.96
2023-04-07T23:51:59.327Z,7.98
2023-04-07T23:54:27.240Z,7.96
2023-04-07T23:56:55.206Z,7.98
2023-04-07T23:59:23.180Z,7.94
